sensor_id;sensor_type;location;lat;lon;timestamp;P1;durP1;ratioP1;P2;durP2;ratioP2
67696;SDS011;54486;51.442;6.778;2022-12-18T00:01:18;16.88;;;9.40;;
67696;SDS011;54486;51.442;6.778;2022-12-18T00:03:47;18.27;;;9.38;;
67696;SDS011;54486;51.442;6.778;2022-12-18T00:06:15;16.63;;;9.25;;
67696;SDS011;54486;51.442;6.778;2022-12-18T00:08:43;17.13;;;9.33;;
67696;SDS011;54486;51.442;6.778;2022-12-18T00:11:12;18.58;;;9.85;;
67696;SDS011;54486;51.442;6.778;2022-12-18T00:13:41;16.63;;;9.13;;
67696;SDS011;54486;51.442;6.778;2022-12-18T00:16:11;17.02;;;8.90;;
67696;SDS011;54486;51.442;6.778;2022-12-18T00:18:40;17.60;;;9.43;;
67696;SDS011;54486;51.442;6.778;2022-12-18T00:21:08;16.38;;;8.40;;
67696;SDS011;54486;51.442;6.778;2022-12-18T00:23:37;18.00;;;9.38;;
67696;SDS011;54486;51.442;6.778;2022-12-18T00:26:07;16.58;;;8.98;;
67696;SDS011;54486;51.442;6.778;2022-12-18T00:28:37;16.45;;;8.35;;
67696;SDS011;54486;51.442;6.778;2022-12-18T00:31:05;17.02;;;8.57;;
67696;SDS011;54486;51.442;6.778;2022-12-18T00:33:34;15.27;;;8.13;;
67696;SDS011;54486;51.442;6.778;2022-12-18T00:38:31;15.50;;;8.98;;
67696;SDS011;54486;51.442;6.778;2022-12-18T00:40:58;16.10;;;8.88;;
67696;SDS011;54486;51.442;6.778;2022-12-18T00:43:25;16.83;;;8.77;;
67696;SDS011;54486;51.442;6.778;2022-12-18T00:45:53;15.80;;;8.15;;
67696;SDS011;54486;51.442;6.778;2022-12-18T00:48:20;15.68;;;8.20;;
67696;SDS011;54486;51.442;6.778;2022-12-18T00:50:48;16.77;;;8.13;;
67696;SDS011;54486;51.442;6.778;2022-12-18T00:53:16;15.93;;;8.68;;
67696;SDS011;54486;51.442;6.778;2022-12-18T00:55:44;16.53;;;8.70;;
67696;SDS011;54486;51.442;6.778;2022-12-18T00:58:13;18.73;;;9.68;;
67696;SDS011;54486;51.442;6.778;2022-12-18T01:00:43;17.58;;;9.23;;
67696;SDS011;54486;51.442;6.778;2022-12-18T01:03:12;19.10;;;10.05;;
67696;SDS011;54486;51.442;6.778;2022-12-18T01:05:41;20.10;;;10.15;;
67696;SDS011;54486;51.442;6.778;2022-12-18T01:08:08;17.97;;;9.67;;
67696;SDS011;54486;51.442;6.778;2022-12-18T01:10:36;18.60;;;10.23;;
67696;SDS011;54486;51.442;6.778;2022-12-18T01:13:03;18.85;;;9.68;;
67696;SDS011;54486;51.442;6.778;2022-12-18T01:15:30;16.93;;;8.93;;
67696;SDS011;54486;51.442;6.778;2022-12-18T01:17:57;19.05;;;9.88;;
67696;SDS011;54486;51.442;6.778;2022-12-18T01:20:24;17.67;;;9.45;;
67696;SDS011;54486;51.442;6.778;2022-12-18T01:22:50;17.42;;;9.13;;
67696;SDS011;54486;51.442;6.778;2022-12-18T01:25:17;17.95;;;9.32;;
67696;SDS011;54486;51.442;6.778;2022-12-18T01:27:44;16.25;;;8.63;;
67696;SDS011;54486;51.442;6.778;2022-12-18T01:30:11;16.40;;;8.65;;
67696;SDS011;54486;51.442;6.778;2022-12-18T01:32:38;16.77;;;9.15;;
67696;SDS011;54486;51.442;6.778;2022-12-18T01:35:05;15.63;;;8.18;;
67696;SDS011;54486;51.442;6.778;2022-12-18T01:37:33;17.77;;;9.57;;
67696;SDS011;54486;51.442;6.778;2022-12-18T01:40:00;16.33;;;8.40;;
67696;SDS011;54486;51.442;6.778;2022-12-18T01:42:27;17.10;;;8.90;;
67696;SDS011;54486;51.442;6.778;2022-12-18T01:47:26;15.18;;;8.25;;
67696;SDS011;54486;51.442;6.778;2022-12-18T01:49:54;15.73;;;8.75;;
67696;SDS011;54486;51.442;6.778;2022-12-18T01:52:22;16.30;;;8.17;;
67696;SDS011;54486;51.442;6.778;2022-12-18T01:54:54;15.63;;;8.73;;
67696;SDS011;54486;51.442;6.778;2022-12-18T01:57:23;16.42;;;8.50;;
67696;SDS011;54486;51.442;6.778;2022-12-18T01:59:52;14.85;;;7.70;;
67696;SDS011;54486;51.442;6.778;2022-12-18T02:02:23;14.90;;;8.70;;
67696;SDS011;54486;51.442;6.778;2022-12-18T02:04:53;15.70;;;8.18;;
67696;SDS011;54486;51.442;6.778;2022-12-18T02:07:25;15.98;;;7.97;;
67696;SDS011;54486;51.442;6.778;2022-12-18T02:10:37;14.55;;;8.00;;
67696;SDS011;54486;51.442;6.778;2022-12-18T02:18:49;15.77;;;8.17;;
67696;SDS011;54486;51.442;6.778;2022-12-18T02:24:23;14.35;;;7.65;;
67696;SDS011;54486;51.442;6.778;2022-12-18T02:27:01;15.07;;;8.07;;
67696;SDS011;54486;51.442;6.778;2022-12-18T02:29:42;15.50;;;8.00;;
67696;SDS011;54486;51.442;6.778;2022-12-18T02:32:27;16.67;;;8.45;;
67696;SDS011;54486;51.442;6.778;2022-12-18T02:34:58;16.67;;;8.27;;
67696;SDS011;54486;51.442;6.778;2022-12-18T02:37:28;14.43;;;7.82;;
67696;SDS011;54486;51.442;6.778;2022-12-18T02:39:57;15.98;;;8.05;;
67696;SDS011;54486;51.442;6.778;2022-12-18T02:42:27;16.20;;;8.18;;
67696;SDS011;54486;51.442;6.778;2022-12-18T02:44:54;15.70;;;7.97;;
67696;SDS011;54486;51.442;6.778;2022-12-18T02:47:22;14.57;;;7.65;;
67696;SDS011;54486;51.442;6.778;2022-12-18T02:58:13;15.60;;;7.80;;
67696;SDS011;54486;51.442;6.778;2022-12-18T03:06:18;16.40;;;7.80;;
67696;SDS011;54486;51.442;6.778;2022-12-18T03:08:52;15.65;;;7.72;;
67696;SDS011;54486;51.442;6.778;2022-12-18T03:11:26;16.27;;;8.00;;
67696;SDS011;54486;51.442;6.778;2022-12-18T03:14:15;16.45;;;8.00;;
67696;SDS011;54486;51.442;6.778;2022-12-18T03:16:47;16.67;;;7.67;;
67696;SDS011;54486;51.442;6.778;2022-12-18T03:19:19;15.32;;;7.85;;
67696;SDS011;54486;51.442;6.778;2022-12-18T03:21:54;17.02;;;8.30;;
67696;SDS011;54486;51.442;6.778;2022-12-18T03:24:24;15.00;;;7.60;;
67696;SDS011;54486;51.442;6.778;2022-12-18T03:26:57;16.63;;;7.65;;
67696;SDS011;54486;51.442;6.778;2022-12-18T03:32:04;15.55;;;9.10;;
67696;SDS011;54486;51.442;6.778;2022-12-18T03:34:35;17.02;;;8.68;;
67696;SDS011;54486;51.442;6.778;2022-12-18T03:37:05;16.65;;;7.78;;
67696;SDS011;54486;51.442;6.778;2022-12-18T03:39:34;15.97;;;8.37;;
67696;SDS011;54486;51.442;6.778;2022-12-18T03:55:41;16.35;;;9.07;;
67696;SDS011;54486;51.442;6.778;2022-12-18T03:58:10;15.77;;;8.20;;
67696;SDS011;54486;51.442;6.778;2022-12-18T04:00:43;15.63;;;8.13;;
67696;SDS011;54486;51.442;6.778;2022-12-18T04:03:12;15.10;;;8.05;;
67696;SDS011;54486;51.442;6.778;2022-12-18T04:05:40;14.52;;;6.88;;
67696;SDS011;54486;51.442;6.778;2022-12-18T04:08:09;15.73;;;8.50;;
67696;SDS011;54486;51.442;6.778;2022-12-18T04:10:37;14.50;;;7.55;;
67696;SDS011;54486;51.442;6.778;2022-12-18T04:13:04;14.63;;;8.10;;
67696;SDS011;54486;51.442;6.778;2022-12-18T04:15:32;13.97;;;7.70;;
67696;SDS011;54486;51.442;6.778;2022-12-18T04:18:02;14.20;;;7.53;;
67696;SDS011;54486;51.442;6.778;2022-12-18T04:20:29;15.00;;;8.40;;
67696;SDS011;54486;51.442;6.778;2022-12-18T04:22:56;12.70;;;6.80;;
67696;SDS011;54486;51.442;6.778;2022-12-18T04:25:23;15.02;;;7.95;;
67696;SDS011;54486;51.442;6.778;2022-12-18T04:27:50;14.43;;;7.45;;
67696;SDS011;54486;51.442;6.778;2022-12-18T04:30:17;14.37;;;7.73;;
67696;SDS011;54486;51.442;6.778;2022-12-18T04:32:43;14.57;;;7.82;;
67696;SDS011;54486;51.442;6.778;2022-12-18T04:35:17;14.02;;;6.88;;
67696;SDS011;54486;51.442;6.778;2022-12-18T04:37:44;14.07;;;7.55;;
67696;SDS011;54486;51.442;6.778;2022-12-18T04:40:11;14.10;;;7.28;;
67696;SDS011;54486;51.442;6.778;2022-12-18T04:42:39;15.07;;;8.53;;
67696;SDS011;54486;51.442;6.778;2022-12-18T04:45:07;13.23;;;6.85;;
67696;SDS011;54486;51.442;6.778;2022-12-18T04:47:35;13.10;;;6.70;;
67696;SDS011;54486;51.442;6.778;2022-12-18T04:50:03;13.23;;;6.90;;
67696;SDS011;54486;51.442;6.778;2022-12-18T04:52:30;12.63;;;6.37;;
67696;SDS011;54486;51.442;6.778;2022-12-18T04:54:57;14.20;;;6.75;;
67696;SDS011;54486;51.442;6.778;2022-12-18T04:57:24;14.40;;;6.93;;
67696;SDS011;54486;51.442;6.778;2022-12-18T04:59:51;13.38;;;7.38;;
67696;SDS011;54486;51.442;6.778;2022-12-18T05:02:18;13.43;;;7.35;;
67696;SDS011;54486;51.442;6.778;2022-12-18T05:04:46;13.80;;;6.70;;
67696;SDS011;54486;51.442;6.778;2022-12-18T05:07:13;12.55;;;6.72;;
67696;SDS011;54486;51.442;6.778;2022-12-18T05:09:40;13.48;;;6.13;;
67696;SDS011;54486;51.442;6.778;2022-12-18T05:12:07;13.97;;;7.37;;
67696;SDS011;54486;51.442;6.778;2022-12-18T05:14:35;12.55;;;6.60;;
67696;SDS011;54486;51.442;6.778;2022-12-18T05:17:02;12.50;;;6.13;;
67696;SDS011;54486;51.442;6.778;2022-12-18T05:19:29;13.27;;;6.43;;
67696;SDS011;54486;51.442;6.778;2022-12-18T05:21:57;14.07;;;6.60;;
67696;SDS011;54486;51.442;6.778;2022-12-18T05:24:24;12.85;;;6.63;;
67696;SDS011;54486;51.442;6.778;2022-12-18T05:26:51;13.75;;;6.78;;
67696;SDS011;54486;51.442;6.778;2022-12-18T05:29:18;12.90;;;7.10;;
67696;SDS011;54486;51.442;6.778;2022-12-18T05:31:47;13.07;;;6.90;;
67696;SDS011;54486;51.442;6.778;2022-12-18T05:34:14;13.40;;;7.03;;
67696;SDS011;54486;51.442;6.778;2022-12-18T05:36:41;13.25;;;6.63;;
67696;SDS011;54486;51.442;6.778;2022-12-18T05:39:10;12.70;;;6.75;;
67696;SDS011;54486;51.442;6.778;2022-12-18T05:41:37;12.75;;;6.30;;
67696;SDS011;54486;51.442;6.778;2022-12-18T05:44:04;13.88;;;6.57;;
67696;SDS011;54486;51.442;6.778;2022-12-18T05:46:31;12.80;;;6.25;;
67696;SDS011;54486;51.442;6.778;2022-12-18T05:48:59;12.23;;;6.00;;
67696;SDS011;54486;51.442;6.778;2022-12-18T05:51:27;11.93;;;6.10;;
67696;SDS011;54486;51.442;6.778;2022-12-18T05:53:55;13.57;;;7.15;;
67696;SDS011;54486;51.442;6.778;2022-12-18T05:56:22;13.10;;;7.20;;
67696;SDS011;54486;51.442;6.778;2022-12-18T05:58:53;11.70;;;6.13;;
67696;SDS011;54486;51.442;6.778;2022-12-18T06:01:22;13.15;;;6.00;;
67696;SDS011;54486;51.442;6.778;2022-12-18T06:03:51;12.60;;;6.47;;
67696;SDS011;54486;51.442;6.778;2022-12-18T06:06:20;13.07;;;6.50;;
67696;SDS011;54486;51.442;6.778;2022-12-18T06:08:49;14.00;;;7.32;;
67696;SDS011;54486;51.442;6.778;2022-12-18T06:11:19;14.07;;;7.03;;
67696;SDS011;54486;51.442;6.778;2022-12-18T06:13:51;12.38;;;7.30;;
67696;SDS011;54486;51.442;6.778;2022-12-18T06:16:24;12.88;;;6.55;;
67696;SDS011;54486;51.442;6.778;2022-12-18T06:18:51;14.02;;;6.95;;
67696;SDS011;54486;51.442;6.778;2022-12-18T06:21:18;13.50;;;7.22;;
67696;SDS011;54486;51.442;6.778;2022-12-18T06:23:46;14.10;;;6.83;;
67696;SDS011;54486;51.442;6.778;2022-12-18T06:26:13;14.02;;;7.43;;
67696;SDS011;54486;51.442;6.778;2022-12-18T06:28:41;13.68;;;7.22;;
67696;SDS011;54486;51.442;6.778;2022-12-18T06:31:08;13.73;;;7.13;;
67696;SDS011;54486;51.442;6.778;2022-12-18T06:33:37;13.33;;;7.20;;
67696;SDS011;54486;51.442;6.778;2022-12-18T06:36:07;13.00;;;6.72;;
67696;SDS011;54486;51.442;6.778;2022-12-18T06:38:36;12.85;;;7.05;;
67696;SDS011;54486;51.442;6.778;2022-12-18T06:41:06;13.18;;;7.15;;
67696;SDS011;54486;51.442;6.778;2022-12-18T06:43:36;13.43;;;7.07;;
67696;SDS011;54486;51.442;6.778;2022-12-18T06:46:04;13.83;;;6.70;;
67696;SDS011;54486;51.442;6.778;2022-12-18T06:48:32;13.63;;;6.68;;
67696;SDS011;54486;51.442;6.778;2022-12-18T06:50:59;13.18;;;6.70;;
67696;SDS011;54486;51.442;6.778;2022-12-18T06:53:27;12.52;;;6.78;;
67696;SDS011;54486;51.442;6.778;2022-12-18T06:56:04;12.80;;;6.95;;
67696;SDS011;54486;51.442;6.778;2022-12-18T06:58:36;13.18;;;6.65;;
67696;SDS011;54486;51.442;6.778;2022-12-18T07:01:06;13.55;;;6.70;;
67696;SDS011;54486;51.442;6.778;2022-12-18T07:03:35;13.27;;;7.15;;
67696;SDS011;54486;51.442;6.778;2022-12-18T07:06:04;14.40;;;7.68;;
67696;SDS011;54486;51.442;6.778;2022-12-18T07:08:31;14.20;;;7.55;;
67696;SDS011;54486;51.442;6.778;2022-12-18T07:11:02;12.82;;;6.38;;
67696;SDS011;54486;51.442;6.778;2022-12-18T07:13:30;13.13;;;7.00;;
67696;SDS011;54486;51.442;6.778;2022-12-18T07:16:04;12.85;;;6.90;;
67696;SDS011;54486;51.442;6.778;2022-12-18T07:18:40;17.00;;;9.37;;
67696;SDS011;54486;51.442;6.778;2022-12-18T07:21:11;22.02;;;12.73;;
67696;SDS011;54486;51.442;6.778;2022-12-18T07:23:40;21.58;;;12.60;;
67696;SDS011;54486;51.442;6.778;2022-12-18T07:26:09;23.48;;;14.07;;
67696;SDS011;54486;51.442;6.778;2022-12-18T07:28:39;27.08;;;15.70;;
67696;SDS011;54486;51.442;6.778;2022-12-18T07:31:09;28.27;;;16.23;;
67696;SDS011;54486;51.442;6.778;2022-12-18T07:33:38;30.30;;;16.63;;
67696;SDS011;54486;51.442;6.778;2022-12-18T07:36:07;29.15;;;15.95;;
67696;SDS011;54486;51.442;6.778;2022-12-18T07:38:36;28.80;;;16.52;;
67696;SDS011;54486;51.442;6.778;2022-12-18T07:41:12;30.25;;;17.67;;
67696;SDS011;54486;51.442;6.778;2022-12-18T07:43:40;31.50;;;18.87;;
67696;SDS011;54486;51.442;6.778;2022-12-18T07:46:08;29.25;;;17.58;;
67696;SDS011;54486;51.442;6.778;2022-12-18T07:48:41;33.30;;;18.50;;
67696;SDS011;54486;51.442;6.778;2022-12-18T07:51:11;36.40;;;21.17;;
67696;SDS011;54486;51.442;6.778;2022-12-18T07:53:39;37.67;;;21.85;;
67696;SDS011;54486;51.442;6.778;2022-12-18T07:56:08;38.85;;;22.65;;
67696;SDS011;54486;51.442;6.778;2022-12-18T07:58:54;37.75;;;21.67;;
67696;SDS011;54486;51.442;6.778;2022-12-18T08:01:21;37.00;;;22.15;;
67696;SDS011;54486;51.442;6.778;2022-12-18T08:03:48;38.08;;;21.05;;
67696;SDS011;54486;51.442;6.778;2022-12-18T08:06:18;36.77;;;21.80;;
67696;SDS011;54486;51.442;6.778;2022-12-18T08:08:53;38.80;;;22.80;;
67696;SDS011;54486;51.442;6.778;2022-12-18T08:11:22;34.63;;;21.85;;
67696;SDS011;54486;51.442;6.778;2022-12-18T08:13:51;38.60;;;22.33;;
67696;SDS011;54486;51.442;6.778;2022-12-18T08:16:19;37.17;;;21.95;;
67696;SDS011;54486;51.442;6.778;2022-12-18T08:18:47;40.37;;;22.90;;
67696;SDS011;54486;51.442;6.778;2022-12-18T08:23:48;40.15;;;24.15;;
67696;SDS011;54486;51.442;6.778;2022-12-18T08:26:18;40.67;;;24.40;;
67696;SDS011;54486;51.442;6.778;2022-12-18T08:28:47;41.08;;;23.77;;
67696;SDS011;54486;51.442;6.778;2022-12-18T08:31:16;40.63;;;23.60;;
67696;SDS011;54486;51.442;6.778;2022-12-18T08:33:45;41.23;;;23.97;;
67696;SDS011;54486;51.442;6.778;2022-12-18T08:36:14;41.47;;;24.50;;
67696;SDS011;54486;51.442;6.778;2022-12-18T08:38:41;41.13;;;25.55;;
67696;SDS011;54486;51.442;6.778;2022-12-18T08:41:09;42.33;;;25.17;;
67696;SDS011;54486;51.442;6.778;2022-12-18T08:43:38;40.17;;;24.25;;
67696;SDS011;54486;51.442;6.778;2022-12-18T08:46:25;37.85;;;23.88;;
67696;SDS011;54486;51.442;6.778;2022-12-18T08:48:53;41.15;;;24.98;;
67696;SDS011;54486;51.442;6.778;2022-12-18T08:51:22;42.30;;;24.33;;
67696;SDS011;54486;51.442;6.778;2022-12-18T08:53:49;41.55;;;24.60;;
67696;SDS011;54486;51.442;6.778;2022-12-18T08:56:16;42.50;;;25.03;;
67696;SDS011;54486;51.442;6.778;2022-12-18T08:58:43;44.03;;;26.92;;
67696;SDS011;54486;51.442;6.778;2022-12-18T09:01:11;41.90;;;26.00;;
67696;SDS011;54486;51.442;6.778;2022-12-18T09:03:39;43.28;;;25.10;;
67696;SDS011;54486;51.442;6.778;2022-12-18T09:06:07;40.60;;;26.15;;
67696;SDS011;54486;51.442;6.778;2022-12-18T09:08:35;43.28;;;25.58;;
67696;SDS011;54486;51.442;6.778;2022-12-18T09:11:05;39.88;;;25.88;;
67696;SDS011;54486;51.442;6.778;2022-12-18T09:13:39;44.88;;;27.27;;
67696;SDS011;54486;51.442;6.778;2022-12-18T09:16:07;42.35;;;25.85;;
67696;SDS011;54486;51.442;6.778;2022-12-18T09:18:34;39.63;;;25.52;;
67696;SDS011;54486;51.442;6.778;2022-12-18T09:21:07;39.90;;;23.85;;
67696;SDS011;54486;51.442;6.778;2022-12-18T09:23:35;39.20;;;23.70;;
67696;SDS011;54486;51.442;6.778;2022-12-18T09:26:03;38.70;;;24.45;;
67696;SDS011;54486;51.442;6.778;2022-12-18T09:28:30;36.78;;;22.60;;
67696;SDS011;54486;51.442;6.778;2022-12-18T09:30:57;36.72;;;22.77;;
67696;SDS011;54486;51.442;6.778;2022-12-18T09:33:25;31.33;;;18.92;;
67696;SDS011;54486;51.442;6.778;2022-12-18T09:35:52;25.13;;;14.77;;
67696;SDS011;54486;51.442;6.778;2022-12-18T09:38:19;25.98;;;13.68;;
67696;SDS011;54486;51.442;6.778;2022-12-18T09:40:51;21.02;;;11.20;;
67696;SDS011;54486;51.442;6.778;2022-12-18T09:43:30;17.63;;;10.20;;
67696;SDS011;54486;51.442;6.778;2022-12-18T09:46:10;17.13;;;8.82;;
67696;SDS011;54486;51.442;6.778;2022-12-18T09:48:54;15.88;;;8.32;;
67696;SDS011;54486;51.442;6.778;2022-12-18T09:51:28;15.52;;;7.85;;
67696;SDS011;54486;51.442;6.778;2022-12-18T09:54:03;16.63;;;8.60;;
67696;SDS011;54486;51.442;6.778;2022-12-18T09:56:35;15.97;;;7.77;;
67696;SDS011;54486;51.442;6.778;2022-12-18T09:59:05;16.20;;;8.93;;
67696;SDS011;54486;51.442;6.778;2022-12-18T10:01:33;16.60;;;9.15;;
67696;SDS011;54486;51.442;6.778;2022-12-18T10:04:09;16.42;;;8.93;;
67696;SDS011;54486;51.442;6.778;2022-12-18T10:12:24;14.13;;;7.20;;
67696;SDS011;54486;51.442;6.778;2022-12-18T10:28:18;13.43;;;6.83;;
67696;SDS011;54486;51.442;6.778;2022-12-18T10:30:46;13.07;;;6.00;;
67696;SDS011;54486;51.442;6.778;2022-12-18T10:33:19;13.65;;;6.40;;
67696;SDS011;54486;51.442;6.778;2022-12-18T10:35:51;13.65;;;5.90;;
67696;SDS011;54486;51.442;6.778;2022-12-18T10:40:54;13.20;;;6.20;;
67696;SDS011;54486;51.442;6.778;2022-12-18T10:43:30;13.88;;;6.97;;
67696;SDS011;54486;51.442;6.778;2022-12-18T10:51:30;15.23;;;7.57;;
67696;SDS011;54486;51.442;6.778;2022-12-18T10:54:00;15.20;;;7.50;;
67696;SDS011;54486;51.442;6.778;2022-12-18T10:56:28;14.27;;;7.07;;
67696;SDS011;54486;51.442;6.778;2022-12-18T10:59:02;19.50;;;9.55;;
67696;SDS011;54486;51.442;6.778;2022-12-18T11:01:45;18.52;;;9.40;;
67696;SDS011;54486;51.442;6.778;2022-12-18T11:04:16;16.90;;;8.43;;
67696;SDS011;54486;51.442;6.778;2022-12-18T11:07:03;14.20;;;7.90;;
67696;SDS011;54486;51.442;6.778;2022-12-18T11:09:33;13.95;;;6.70;;
67696;SDS011;54486;51.442;6.778;2022-12-18T11:12:23;12.43;;;6.13;;
67696;SDS011;54486;51.442;6.778;2022-12-18T11:14:50;14.07;;;6.73;;
67696;SDS011;54486;51.442;6.778;2022-12-18T11:17:19;12.95;;;6.63;;
67696;SDS011;54486;51.442;6.778;2022-12-18T11:20:02;14.02;;;7.43;;
67696;SDS011;54486;51.442;6.778;2022-12-18T11:22:35;13.40;;;7.85;;
67696;SDS011;54486;51.442;6.778;2022-12-18T11:25:05;13.43;;;6.63;;
67696;SDS011;54486;51.442;6.778;2022-12-18T11:28:03;13.37;;;6.60;;
67696;SDS011;54486;51.442;6.778;2022-12-18T11:30:34;14.25;;;7.15;;
67696;SDS011;54486;51.442;6.778;2022-12-18T11:33:06;14.27;;;6.97;;
67696;SDS011;54486;51.442;6.778;2022-12-18T11:40:40;14.43;;;6.30;;
67696;SDS011;54486;51.442;6.778;2022-12-18T11:43:20;12.95;;;6.85;;
67696;SDS011;54486;51.442;6.778;2022-12-18T11:45:55;12.82;;;6.43;;
67696;SDS011;54486;51.442;6.778;2022-12-18T11:48:38;11.90;;;6.00;;
67696;SDS011;54486;51.442;6.778;2022-12-18T11:51:14;13.77;;;6.05;;
67696;SDS011;54486;51.442;6.778;2022-12-18T11:53:53;13.25;;;6.15;;
67696;SDS011;54486;51.442;6.778;2022-12-18T11:56:30;12.80;;;6.43;;
67696;SDS011;54486;51.442;6.778;2022-12-18T12:02:29;13.93;;;7.20;;
67696;SDS011;54486;51.442;6.778;2022-12-18T12:11:05;15.50;;;8.35;;
67696;SDS011;54486;51.442;6.778;2022-12-18T12:16:33;16.60;;;9.00;;
67696;SDS011;54486;51.442;6.778;2022-12-18T12:19:15;14.65;;;7.75;;
67696;SDS011;54486;51.442;6.778;2022-12-18T12:36:31;13.75;;;7.03;;
67696;SDS011;54486;51.442;6.778;2022-12-18T12:39:14;14.43;;;7.40;;
67696;SDS011;54486;51.442;6.778;2022-12-18T12:41:46;14.60;;;7.50;;
67696;SDS011;54486;51.442;6.778;2022-12-18T12:44:34;15.05;;;8.00;;
67696;SDS011;54486;51.442;6.778;2022-12-18T12:47:09;15.18;;;7.75;;
67696;SDS011;54486;51.442;6.778;2022-12-18T12:49:42;15.93;;;8.10;;
67696;SDS011;54486;51.442;6.778;2022-12-18T12:52:18;15.20;;;8.55;;
67696;SDS011;54486;51.442;6.778;2022-12-18T12:54:55;16.08;;;8.25;;
67696;SDS011;54486;51.442;6.778;2022-12-18T12:57:43;15.97;;;8.67;;
67696;SDS011;54486;51.442;6.778;2022-12-18T13:00:37;15.73;;;8.20;;
67696;SDS011;54486;51.442;6.778;2022-12-18T13:06:03;15.07;;;8.10;;
67696;SDS011;54486;51.442;6.778;2022-12-18T13:08:52;16.25;;;8.05;;
67696;SDS011;54486;51.442;6.778;2022-12-18T13:14:29;15.48;;;8.05;;
67696;SDS011;54486;51.442;6.778;2022-12-18T13:19:42;14.80;;;7.43;;
67696;SDS011;54486;51.442;6.778;2022-12-18T13:25:35;15.73;;;8.35;;
67696;SDS011;54486;51.442;6.778;2022-12-18T13:30:56;15.02;;;7.95;;
67696;SDS011;54486;51.442;6.778;2022-12-18T13:35:55;16.67;;;8.70;;
67696;SDS011;54486;51.442;6.778;2022-12-18T13:38:40;17.05;;;9.38;;
67696;SDS011;54486;51.442;6.778;2022-12-18T13:43:46;16.70;;;9.18;;
67696;SDS011;54486;51.442;6.778;2022-12-18T13:46:19;16.60;;;8.77;;
67696;SDS011;54486;51.442;6.778;2022-12-18T13:48:50;18.05;;;9.43;;
67696;SDS011;54486;51.442;6.778;2022-12-18T13:51:22;17.73;;;9.20;;
67696;SDS011;54486;51.442;6.778;2022-12-18T13:53:53;19.92;;;9.18;;
67696;SDS011;54486;51.442;6.778;2022-12-18T13:56:25;19.15;;;9.25;;
67696;SDS011;54486;51.442;6.778;2022-12-18T13:59:14;17.55;;;9.18;;
67696;SDS011;54486;51.442;6.778;2022-12-18T14:04:33;19.90;;;9.93;;
67696;SDS011;54486;51.442;6.778;2022-12-18T14:07:02;19.75;;;11.20;;
67696;SDS011;54486;51.442;6.778;2022-12-18T14:09:31;18.92;;;9.27;;
67696;SDS011;54486;51.442;6.778;2022-12-18T14:12:05;17.73;;;9.73;;
67696;SDS011;54486;51.442;6.778;2022-12-18T14:14:51;18.47;;;9.90;;
67696;SDS011;54486;51.442;6.778;2022-12-18T14:17:21;20.38;;;9.95;;
67696;SDS011;54486;51.442;6.778;2022-12-18T14:19:50;17.85;;;9.75;;
67696;SDS011;54486;51.442;6.778;2022-12-18T14:22:21;19.30;;;9.40;;
67696;SDS011;54486;51.442;6.778;2022-12-18T14:28:23;19.23;;;10.35;;
67696;SDS011;54486;51.442;6.778;2022-12-18T14:30:37;19.73;;;10.77;;
67696;SDS011;54486;51.442;6.778;2022-12-18T14:33:10;19.77;;;10.85;;
67696;SDS011;54486;51.442;6.778;2022-12-18T14:35:42;21.48;;;11.80;;
67696;SDS011;54486;51.442;6.778;2022-12-18T14:41:02;20.85;;;11.55;;
67696;SDS011;54486;51.442;6.778;2022-12-18T14:43:32;22.80;;;11.90;;
67696;SDS011;54486;51.442;6.778;2022-12-18T14:46:01;25.83;;;12.57;;
67696;SDS011;54486;51.442;6.778;2022-12-18T14:48:35;21.60;;;11.82;;
67696;SDS011;54486;51.442;6.778;2022-12-18T14:51:06;20.10;;;11.45;;
67696;SDS011;54486;51.442;6.778;2022-12-18T14:58:53;22.23;;;11.63;;
67696;SDS011;54486;51.442;6.778;2022-12-18T15:01:23;20.67;;;10.20;;
67696;SDS011;54486;51.442;6.778;2022-12-18T15:03:53;21.70;;;11.35;;
67696;SDS011;54486;51.442;6.778;2022-12-18T15:06:43;20.17;;;10.85;;
67696;SDS011;54486;51.442;6.778;2022-12-18T15:09:21;21.20;;;10.85;;
67696;SDS011;54486;51.442;6.778;2022-12-18T15:11:54;22.00;;;11.50;;
67696;SDS011;54486;51.442;6.778;2022-12-18T15:17:05;21.00;;;10.70;;
67696;SDS011;54486;51.442;6.778;2022-12-18T15:19:41;19.63;;;10.38;;
67696;SDS011;54486;51.442;6.778;2022-12-18T15:24:54;22.25;;;11.88;;
67696;SDS011;54486;51.442;6.778;2022-12-18T15:27:24;20.80;;;11.10;;
67696;SDS011;54486;51.442;6.778;2022-12-18T15:32:36;19.85;;;11.13;;
67696;SDS011;54486;51.442;6.778;2022-12-18T15:37:40;22.77;;;11.73;;
67696;SDS011;54486;51.442;6.778;2022-12-18T15:40:08;24.73;;;12.88;;
67696;SDS011;54486;51.442;6.778;2022-12-18T15:42:39;22.88;;;13.20;;
67696;SDS011;54486;51.442;6.778;2022-12-18T15:45:25;26.23;;;15.10;;
67696;SDS011;54486;51.442;6.778;2022-12-18T15:47:52;30.48;;;18.05;;
67696;SDS011;54486;51.442;6.778;2022-12-18T15:50:20;58.15;;;33.60;;
67696;SDS011;54486;51.442;6.778;2022-12-18T15:52:48;66.75;;;33.63;;
67696;SDS011;54486;51.442;6.778;2022-12-18T15:55:21;48.00;;;23.88;;
67696;SDS011;54486;51.442;6.778;2022-12-18T15:58:09;32.55;;;17.08;;
67696;SDS011;54486;51.442;6.778;2022-12-18T16:00:38;25.98;;;13.45;;
67696;SDS011;54486;51.442;6.778;2022-12-18T16:03:08;26.33;;;12.93;;
67696;SDS011;54486;51.442;6.778;2022-12-18T16:05:36;24.00;;;12.88;;
67696;SDS011;54486;51.442;6.778;2022-12-18T16:08:03;23.88;;;13.10;;
67696;SDS011;54486;51.442;6.778;2022-12-18T16:10:30;25.08;;;12.68;;
67696;SDS011;54486;51.442;6.778;2022-12-18T16:12:57;23.77;;;13.23;;
67696;SDS011;54486;51.442;6.778;2022-12-18T16:15:25;24.77;;;13.00;;
67696;SDS011;54486;51.442;6.778;2022-12-18T16:17:51;24.85;;;13.40;;
67696;SDS011;54486;51.442;6.778;2022-12-18T16:20:20;23.63;;;12.70;;
67696;SDS011;54486;51.442;6.778;2022-12-18T16:22:49;23.77;;;12.38;;
67696;SDS011;54486;51.442;6.778;2022-12-18T16:25:18;26.15;;;14.13;;
67696;SDS011;54486;51.442;6.778;2022-12-18T16:27:51;23.63;;;12.55;;
67696;SDS011;54486;51.442;6.778;2022-12-18T16:30:20;25.55;;;13.70;;
67696;SDS011;54486;51.442;6.778;2022-12-18T16:32:49;25.10;;;14.07;;
67696;SDS011;54486;51.442;6.778;2022-12-18T16:35:16;25.02;;;13.57;;
67696;SDS011;54486;51.442;6.778;2022-12-18T16:37:43;26.58;;;14.10;;
67696;SDS011;54486;51.442;6.778;2022-12-18T16:40:11;24.70;;;13.27;;
67696;SDS011;54486;51.442;6.778;2022-12-18T16:42:40;27.33;;;14.40;;
67696;SDS011;54486;51.442;6.778;2022-12-18T16:45:09;25.48;;;13.50;;
67696;SDS011;54486;51.442;6.778;2022-12-18T16:47:38;24.80;;;13.68;;
67696;SDS011;54486;51.442;6.778;2022-12-18T16:50:07;26.98;;;15.60;;
67696;SDS011;54486;51.442;6.778;2022-12-18T16:52:34;26.73;;;13.52;;
67696;SDS011;54486;51.442;6.778;2022-12-18T16:55:02;27.00;;;14.65;;
67696;SDS011;54486;51.442;6.778;2022-12-18T16:57:29;26.73;;;15.30;;
67696;SDS011;54486;51.442;6.778;2022-12-18T16:59:56;25.13;;;14.32;;
67696;SDS011;54486;51.442;6.778;2022-12-18T17:02:30;26.65;;;15.15;;
67696;SDS011;54486;51.442;6.778;2022-12-18T17:04:58;26.23;;;13.65;;
67696;SDS011;54486;51.442;6.778;2022-12-18T17:07:26;27.40;;;15.48;;
67696;SDS011;54486;51.442;6.778;2022-12-18T17:09:54;28.48;;;15.63;;
67696;SDS011;54486;51.442;6.778;2022-12-18T17:12:21;29.83;;;16.13;;
67696;SDS011;54486;51.442;6.778;2022-12-18T17:14:49;28.35;;;15.13;;
67696;SDS011;54486;51.442;6.778;2022-12-18T17:17:16;27.20;;;14.98;;
67696;SDS011;54486;51.442;6.778;2022-12-18T17:19:48;27.25;;;15.15;;
67696;SDS011;54486;51.442;6.778;2022-12-18T17:22:15;28.20;;;15.75;;